createdAt,value
2019-02-08T00:00:09.878Z,3.00
2019-02-08T00:01:09.897Z,3.20
2019-02-08T00:02:09.863Z,3.10
2019-02-08T00:03:09.850Z,3.10
2019-02-08T00:04:09.834Z,2.90
2019-02-08T00:05:09.825Z,2.90
2019-02-08T00:06:09.834Z,2.80
2019-02-08T00:07:09.802Z,2.90
2019-02-08T00:08:09.798Z,3.00
2019-02-08T00:09:09.789Z,2.90
2019-02-08T00:10:09.767Z,3.50
2019-02-08T00:11:09.785Z,3.00
2019-02-08T00:12:09.746Z,3.50
2019-02-08T00:13:09.737Z,3.00
2019-02-08T00:14:09.727Z,3.00
2019-02-08T00:15:09.730Z,2.90
2019-02-08T00:16:09.735Z,2.80
2019-02-08T00:17:09.699Z,3.40
2019-02-08T00:18:09.684Z,3.10
2019-02-08T00:19:09.683Z,3.20
2019-02-08T00:20:09.668Z,3.00
2019-02-08T00:21:09.678Z,3.10
2019-02-08T00:22:09.649Z,3.00
2019-02-08T00:23:09.631Z,3.30
2019-02-08T00:24:09.620Z,3.10
2019-02-08T00:25:09.610Z,3.20
2019-02-08T00:26:09.633Z,2.90
2019-02-08T00:27:09.597Z,3.10
2019-02-08T00:28:09.579Z,3.10
2019-02-08T00:29:09.567Z,3.20
2019-02-08T00:30:09.578Z,3.20
2019-02-08T00:31:09.592Z,3.40
2019-02-08T00:32:09.548Z,3.50
2019-02-08T00:33:09.523Z,3.40
2019-02-08T00:34:09.514Z,2.90
2019-02-08T00:35:09.502Z,3.40
2019-02-08T00:36:09.498Z,3.20
2019-02-08T00:37:09.506Z,3.60
2019-02-08T00:38:09.471Z,3.10
2019-02-08T00:39:09.468Z,3.40
2019-02-08T00:40:09.475Z,3.00
2019-02-08T00:41:09.497Z,3.40
2019-02-08T00:42:09.615Z,3.60
2019-02-08T00:43:09.497Z,3.20
2019-02-08T00:44:09.445Z,3.50
2019-02-08T00:45:09.467Z,3.70
2019-02-08T00:46:09.387Z,3.40
2019-02-08T00:47:09.497Z,3.10
2019-02-08T00:48:09.389Z,3.20
2019-02-08T00:49:09.407Z,3.30
2019-02-08T00:50:09.416Z,3.30
2019-02-08T00:51:09.499Z,2.90
2019-02-08T00:52:09.509Z,3.30
2019-02-08T00:53:09.313Z,2.90
2019-02-08T00:54:09.304Z,3.90
2019-02-08T00:55:09.294Z,3.30
2019-02-08T00:56:09.295Z,3.00
2019-02-08T00:57:09.300Z,3.80
2019-02-08T00:58:09.259Z,3.40
2019-02-08T00:59:09.255Z,3.40
2019-02-08T01:00:09.248Z,3.20
2019-02-08T01:01:09.231Z,3.90
2019-02-08T01:02:09.244Z,3.30
2019-02-08T01:03:09.221Z,3.10
2019-02-08T01:04:09.203Z,3.20
2019-02-08T01:05:09.223Z,3.60
2019-02-08T01:06:09.213Z,3.30
2019-02-08T01:07:09.192Z,3.20
2019-02-08T01:08:09.157Z,3.10
2019-02-08T01:09:09.142Z,3.60
2019-02-08T01:10:09.136Z,3.10
2019-02-08T01:11:09.124Z,2.90
2019-02-08T01:12:09.132Z,3.00
2019-02-08T01:13:09.106Z,3.20
2019-02-08T01:14:09.094Z,4.00
2019-02-08T01:15:09.079Z,3.50
2019-02-08T01:16:09.070Z,2.70
2019-02-08T01:17:09.088Z,3.50
2019-02-08T01:18:09.053Z,3.30
2019-02-08T01:19:09.044Z,3.50
2019-02-08T01:20:09.039Z,3.50
2019-02-08T01:21:09.021Z,3.80
2019-02-08T01:22:09.037Z,3.30
2019-02-08T01:23:08.998Z,3.90
2019-02-08T01:24:08.990Z,3.70
2019-02-08T01:25:08.975Z,3.90
2019-02-08T01:26:08.971Z,3.40
2019-02-08T01:27:08.988Z,4.20
2019-02-08T01:28:08.943Z,3.50
2019-02-08T01:29:08.940Z,3.80
2019-02-08T01:30:08.924Z,4.00
2019-02-08T01:31:08.911Z,3.50
2019-02-08T01:32:08.921Z,4.00
2019-02-08T01:33:08.891Z,4.60
2019-02-08T01:34:08.880Z,4.20
2019-02-08T01:35:08.873Z,4.10
2019-02-08T01:36:08.861Z,4.50
2019-02-08T01:37:08.870Z,4.30
2019-02-08T01:38:08.843Z,4.40
2019-02-08T01:39:08.827Z,4.20
2019-02-08T01:40:08.815Z,4.70
2019-02-08T01:41:08.812Z,4.60
2019-02-08T01:42:08.824Z,4.80
2019-02-08T01:43:08.786Z,4.40
2019-02-08T01:44:08.781Z,4.60
2019-02-08T01:45:08.766Z,4.30
2019-02-08T01:46:08.753Z,4.20
2019-02-08T01:47:08.770Z,4.40
2019-02-08T01:48:08.739Z,4.50
2019-02-08T01:49:08.721Z,4.10
2019-02-08T01:50:08.711Z,4.60
2019-02-08T01:51:08.698Z,4.10
2019-02-08T01:52:08.714Z,4.10
2019-02-08T01:53:08.679Z,4.20
2019-02-08T01:54:08.675Z,4.00
2019-02-08T01:55:08.660Z,3.60
2019-02-08T01:56:08.649Z,3.90
2019-02-08T01:57:08.663Z,3.60
2019-02-08T01:58:08.626Z,4.40
2019-02-08T01:59:08.617Z,3.60
2019-02-08T02:00:10.045Z,3.70
2019-02-08T02:01:08.603Z,4.00
2019-02-08T02:02:08.611Z,3.80
2019-02-08T02:03:08.582Z,3.70
2019-02-08T02:04:08.565Z,3.50
2019-02-08T02:05:08.557Z,3.80
2019-02-08T02:06:08.544Z,3.60
2019-02-08T02:07:08.561Z,2.90
2019-02-08T02:08:08.523Z,3.00
2019-02-08T02:09:08.511Z,3.40
2019-02-08T02:10:08.506Z,3.30
2019-02-08T02:11:08.492Z,3.60
2019-02-08T02:12:08.503Z,3.90
2019-02-08T02:13:08.467Z,3.30
2019-02-08T02:14:08.459Z,3.60
2019-02-08T02:15:08.450Z,3.70
2019-02-08T02:16:08.446Z,3.40
2019-02-08T02:17:08.433Z,3.50
2019-02-08T02:18:08.451Z,3.40
2019-02-08T02:19:08.405Z,3.50
2019-02-08T02:20:08.395Z,3.30
2019-02-08T02:21:08.393Z,3.60
2019-02-08T02:22:08.375Z,3.50
2019-02-08T02:23:08.395Z,3.80
2019-02-08T02:24:08.365Z,3.90
2019-02-08T02:25:08.346Z,3.80
2019-02-08T02:26:08.335Z,4.10
2019-02-08T02:27:08.323Z,4.00
2019-02-08T02:28:08.336Z,5.20
2019-02-08T02:29:08.304Z,5.40
2019-02-08T02:30:08.292Z,4.70
2019-02-08T02:31:08.282Z,5.40
2019-02-08T02:32:08.270Z,5.70
2019-02-08T02:33:08.292Z,5.80
2019-02-08T02:34:08.254Z,6.30
2019-02-08T02:35:08.236Z,6.80
2019-02-08T02:36:08.257Z,6.70
2019-02-08T02:37:08.219Z,6.40
2019-02-08T02:38:08.234Z,7.00
2019-02-08T02:39:08.201Z,6.30
2019-02-08T02:40:08.186Z,6.20
2019-02-08T02:41:08.182Z,6.50
2019-02-08T02:42:08.169Z,6.40
2019-02-08T02:43:08.176Z,6.40
2019-02-08T02:44:08.144Z,6.00
2019-02-08T02:45:08.135Z,6.90
2019-02-08T02:46:08.163Z,6.70
2019-02-08T02:47:08.114Z,7.00
2019-02-08T02:48:08.129Z,6.70
2019-02-08T02:49:08.098Z,6.20
2019-02-08T02:50:08.081Z,6.40
2019-02-08T02:51:08.073Z,7.30
2019-02-08T02:52:08.055Z,6.30
2019-02-08T02:53:08.096Z,7.20
2019-02-08T02:54:08.040Z,6.80
2019-02-08T02:55:08.027Z,6.80
2019-02-08T02:56:08.016Z,7.60
2019-02-08T02:57:08.013Z,7.00
2019-02-08T02:58:08.059Z,6.80
2019-02-08T02:59:07.983Z,7.20
2019-02-08T03:00:07.975Z,7.70
2019-02-08T03:01:07.963Z,7.60
2019-02-08T03:02:07.954Z,7.60
2019-02-08T03:03:07.977Z,7.50
2019-02-08T03:04:07.931Z,7.50
2019-02-08T03:05:07.920Z,7.70
2019-02-08T03:06:07.912Z,7.70
2019-02-08T03:07:07.900Z,8.00
2019-02-08T03:08:07.920Z,8.00
2019-02-08T03:09:07.880Z,7.80
2019-02-08T03:10:07.866Z,7.90
2019-02-08T03:11:07.863Z,8.00
2019-02-08T03:12:07.851Z,7.90
2019-02-08T03:13:07.862Z,7.60
2019-02-08T03:14:07.830Z,8.20
2019-02-08T03:15:07.817Z,8.50
2019-02-08T03:16:07.804Z,8.60
2019-02-08T03:17:07.799Z,9.40
2019-02-08T03:18:07.806Z,9.20
2019-02-08T03:19:07.775Z,8.90
2019-02-08T03:20:07.774Z,8.50
2019-02-08T03:21:07.758Z,9.20
2019-02-08T03:22:07.739Z,9.40
2019-02-08T03:23:07.760Z,9.50
2019-02-08T03:24:12.949Z,8.90
2019-02-08T03:25:08.708Z,9.30
2019-02-08T03:26:07.700Z,9.50
2019-02-08T03:27:07.703Z,9.50
2019-02-08T03:28:07.707Z,10.00
2019-02-08T03:29:07.668Z,9.60
2019-02-08T03:30:07.664Z,9.70
2019-02-08T03:31:07.648Z,9.80
2019-02-08T03:32:07.638Z,10.20
2019-02-08T03:33:07.654Z,10.50
2019-02-08T03:34:07.616Z,9.80
2019-02-08T03:35:07.607Z,9.80
2019-02-08T03:36:07.591Z,9.60
2019-02-08T03:37:07.582Z,10.30
2019-02-08T03:38:07.602Z,9.20
2019-02-08T03:39:07.561Z,8.60
2019-02-08T03:40:07.552Z,9.00
2019-02-08T03:41:07.540Z,9.10
2019-02-08T03:42:07.531Z,9.70
2019-02-08T03:43:08.233Z,9.10
2019-02-08T03:44:07.516Z,8.30
2019-02-08T03:45:07.509Z,8.70
2019-02-08T03:46:07.499Z,9.50
2019-02-08T03:47:07.480Z,9.10
2019-02-08T03:48:07.492Z,9.00
2019-02-08T03:49:07.459Z,9.60
2019-02-08T03:50:09.166Z,9.00
2019-02-08T03:51:07.434Z,8.40
2019-02-08T03:52:07.424Z,8.60
2019-02-08T03:53:07.439Z,9.00
2019-02-08T03:54:07.404Z,7.80
2019-02-08T03:55:07.405Z,8.90
2019-02-08T03:56:07.382Z,8.30
2019-02-08T03:57:07.379Z,9.10
2019-02-08T03:58:07.398Z,9.10
2019-02-08T03:59:07.349Z,10.10
2019-02-08T04:00:07.346Z,9.90
2019-02-08T04:01:07.329Z,10.20
2019-02-08T04:02:07.319Z,9.70
2019-02-08T04:03:07.315Z,9.40
2019-02-08T04:04:07.318Z,11.00
2019-02-08T04:05:07.288Z,10.80
2019-02-08T04:06:07.274Z,10.90
2019-02-08T04:07:07.265Z,11.80
2019-02-08T04:08:07.272Z,11.40
2019-02-08T04:09:07.274Z,10.90
2019-02-08T04:10:07.237Z,11.20
2019-02-08T04:11:07.223Z,10.50
2019-02-08T04:12:07.231Z,10.10
2019-02-08T04:13:07.199Z,11.00
2019-02-08T04:14:07.217Z,10.50
2019-02-08T04:15:07.186Z,9.50
2019-02-08T04:16:07.171Z,11.50
2019-02-08T04:17:07.161Z,11.40
2019-02-08T04:18:07.150Z,9.60
2019-02-08T04:19:07.165Z,10.10
2019-02-08T04:20:07.126Z,8.80
2019-02-08T04:21:07.118Z,10.10
2019-02-08T04:22:07.114Z,8.80
2019-02-08T04:23:07.098Z,9.00
2019-02-08T04:24:07.117Z,9.20
2019-02-08T04:25:07.078Z,9.50
2019-02-08T04:26:07.070Z,9.20
2019-02-08T04:27:07.055Z,9.70
2019-02-08T04:28:07.042Z,9.90
2019-02-08T04:29:07.059Z,9.20
2019-02-08T04:30:07.030Z,8.40
2019-02-08T04:31:07.011Z,8.10
2019-02-08T04:32:07.003Z,8.80
2019-02-08T04:33:06.990Z,8.80
2019-02-08T04:34:07.006Z,8.50
2019-02-08T04:35:06.974Z,8.10
2019-02-08T04:36:06.963Z,7.90
2019-02-08T04:37:06.951Z,8.50
2019-02-08T04:38:06.955Z,8.60
2019-02-08T04:39:06.950Z,7.90
2019-02-08T04:40:06.917Z,7.10
2019-02-08T04:41:06.921Z,7.60
2019-02-08T04:42:06.895Z,7.30
2019-02-08T04:43:06.889Z,7.40
2019-02-08T04:44:06.907Z,7.20
2019-02-08T04:45:06.865Z,6.80
2019-02-08T04:46:06.853Z,7.40
2019-02-08T04:47:06.844Z,7.00
2019-02-08T04:48:06.832Z,7.10
2019-02-08T04:49:06.860Z,7.20
2019-02-08T04:50:06.816Z,6.60
2019-02-08T04:51:06.799Z,7.00
2019-02-08T04:52:06.793Z,6.20
2019-02-08T04:53:06.781Z,5.70
2019-02-08T04:54:06.801Z,7.20
2019-02-08T04:55:06.754Z,6.70
2019-02-08T04:56:06.752Z,6.70
2019-02-08T04:57:06.736Z,6.50
2019-02-08T04:58:06.727Z,6.60
2019-02-08T04:59:06.739Z,6.20
2019-02-08T05:00:06.706Z,6.20
2019-02-08T05:01:06.699Z,6.40
2019-02-08T05:02:06.683Z,6.80
2019-02-08T05:03:06.677Z,6.90
2019-02-08T05:04:06.686Z,6.10
2019-02-08T05:05:06.661Z,5.80
2019-02-08T05:06:06.645Z,5.70
2019-02-08T05:07:06.632Z,5.60
2019-02-08T05:08:06.618Z,5.40
2019-02-08T05:09:06.642Z,5.00
2019-02-08T05:10:06.623Z,4.90
2019-02-08T05:11:06.599Z,5.30
2019-02-08T05:12:06.645Z,5.40
2019-02-08T05:13:06.733Z,5.10
2019-02-08T05:14:06.621Z,4.90
2019-02-08T05:15:06.550Z,4.80
2019-02-08T05:16:06.705Z,5.00
2019-02-08T05:17:06.528Z,5.00
2019-02-08T05:18:06.520Z,5.00
2019-02-08T05:19:06.532Z,5.40
2019-02-08T05:20:06.498Z,4.70
2019-02-08T05:21:06.483Z,5.30
2019-02-08T05:22:06.480Z,5.20
2019-02-08T05:23:06.467Z,4.60
2019-02-08T05:24:06.477Z,5.10
2019-02-08T05:25:06.444Z,4.90
2019-02-08T05:26:06.435Z,5.20
2019-02-08T05:27:06.443Z,5.20
2019-02-08T05:28:06.416Z,5.10
2019-02-08T05:29:06.434Z,5.20
2019-02-08T05:30:06.396Z,5.00
2019-02-08T05:31:06.383Z,5.00
2019-02-08T05:32:06.378Z,5.20
2019-02-08T05:33:06.362Z,4.80
2019-02-08T05:34:06.380Z,4.50
2019-02-08T05:35:06.344Z,4.20
2019-02-08T05:36:06.330Z,4.60
2019-02-08T05:37:06.320Z,4.70
2019-02-08T05:38:06.304Z,5.10
2019-02-08T05:39:06.319Z,4.80
2019-02-08T05:40:06.298Z,4.90
2019-02-08T05:41:06.274Z,4.60
2019-02-08T05:42:06.264Z,4.50
2019-02-08T05:43:06.250Z,4.50
2019-02-08T05:44:06.242Z,4.40
2019-02-08T05:45:06.259Z,4.40
2019-02-08T05:46:06.219Z,5.00
2019-02-08T05:47:06.211Z,5.20
2019-02-08T05:48:06.201Z,4.60
2019-02-08T05:49:06.187Z,4.60
2019-02-08T05:50:06.198Z,4.50
2019-02-08T05:51:06.168Z,4.40
2019-02-08T05:52:06.154Z,4.70
2019-02-08T05:53:06.146Z,4.50
2019-02-08T05:54:06.144Z,3.60
2019-02-08T05:55:06.160Z,4.00
2019-02-08T05:56:06.121Z,4.00
2019-02-08T05:57:06.109Z,3.90
2019-02-08T05:58:06.091Z,4.00
2019-02-08T05:59:06.083Z,4.10
2019-02-08T06:00:06.101Z,4.40
2019-02-08T06:01:06.060Z,4.00
2019-02-08T06:02:06.052Z,3.90
2019-02-08T06:03:06.044Z,4.00
2019-02-08T06:04:06.026Z,4.70
2019-02-08T06:05:06.042Z,4.30
2019-02-08T06:06:06.010Z,4.10
2019-02-08T06:07:05.998Z,4.50
2019-02-08T06:08:05.997Z,4.60
2019-02-08T06:09:05.978Z,3.90
2019-02-08T06:10:05.999Z,4.80
2019-02-08T06:11:05.957Z,5.00
2019-02-08T06:12:05.948Z,5.10
2019-02-08T06:13:05.940Z,5.30
2019-02-08T06:14:05.934Z,5.30
2019-02-08T06:15:05.940Z,5.90
2019-02-08T06:16:05.900Z,4.90
2019-02-08T06:17:05.901Z,6.10
2019-02-08T06:18:05.888Z,6.10
2019-02-08T06:19:05.868Z,6.30
2019-02-08T06:20:05.888Z,5.20
2019-02-08T06:21:05.846Z,6.10
2019-02-08T06:22:05.841Z,5.70
2019-02-08T06:23:05.833Z,6.10
2019-02-08T06:24:05.816Z,5.70
2019-02-08T06:25:05.827Z,5.00
2019-02-08T06:26:05.803Z,5.50
2019-02-08T06:27:05.783Z,5.60
2019-02-08T06:28:05.773Z,6.10
2019-02-08T06:29:05.771Z,6.40
2019-02-08T06:30:05.786Z,5.70
2019-02-08T06:31:05.747Z,6.10
2019-02-08T06:32:05.739Z,5.70
2019-02-08T06:33:05.725Z,5.90
2019-02-08T06:34:05.712Z,6.10
2019-02-08T06:35:05.739Z,6.10
2019-02-08T06:36:05.688Z,5.80
2019-02-08T06:37:05.702Z,5.70
2019-02-08T06:38:05.675Z,5.70
2019-02-08T06:39:05.655Z,5.80
2019-02-08T06:40:05.671Z,5.80
2019-02-08T06:41:05.636Z,6.00
2019-02-08T06:42:05.623Z,5.00
2019-02-08T06:43:05.624Z,5.60
2019-02-08T06:44:05.603Z,5.70
2019-02-08T06:45:05.855Z,5.90
2019-02-08T06:46:05.588Z,5.30
2019-02-08T06:47:05.572Z,5.90
2019-02-08T06:48:05.559Z,5.40
2019-02-08T06:49:05.553Z,5.50
2019-02-08T06:50:05.565Z,5.40
2019-02-08T06:51:05.529Z,5.50
2019-02-08T06:52:05.531Z,4.90
2019-02-08T06:53:05.507Z,5.20
2019-02-08T06:54:05.494Z,5.60
2019-02-08T06:55:10.662Z,5.70
2019-02-08T06:56:06.475Z,5.30
2019-02-08T06:57:05.467Z,5.10
2019-02-08T06:58:05.460Z,4.90
2019-02-08T06:59:05.443Z,5.30
2019-02-08T07:00:05.464Z,5.30
2019-02-08T07:01:05.427Z,5.50
2019-02-08T07:02:05.414Z,5.30
2019-02-08T07:03:05.404Z,5.40
2019-02-08T07:04:05.394Z,4.90
2019-02-08T07:05:05.409Z,5.00
2019-02-08T07:06:05.380Z,4.80
2019-02-08T07:07:05.372Z,5.40
2019-02-08T07:08:05.357Z,4.80
2019-02-08T07:09:05.346Z,5.40
2019-02-08T07:10:05.352Z,5.20
2019-02-08T07:11:05.315Z,4.90
2019-02-08T07:12:05.310Z,4.70
2019-02-08T07:13:05.298Z,5.30
2019-02-08T07:14:05.293Z,4.60
2019-02-08T07:15:05.302Z,4.40
2019-02-08T07:16:05.265Z,4.90
2019-02-08T07:17:05.256Z,4.30
2019-02-08T07:18:05.253Z,4.20
2019-02-08T07:19:05.231Z,4.90
2019-02-08T07:20:05.368Z,4.60
2019-02-08T07:21:05.214Z,4.50
2019-02-08T07:22:05.198Z,4.80
2019-02-08T07:23:05.206Z,4.70
2019-02-08T07:24:05.183Z,4.40
2019-02-08T07:25:05.167Z,4.70
2019-02-08T07:26:05.198Z,4.40
2019-02-08T07:27:05.149Z,4.10
2019-02-08T07:28:05.134Z,4.80
2019-02-08T07:29:05.130Z,4.20
2019-02-08T07:30:05.128Z,4.30
2019-02-08T07:31:05.363Z,4.20
2019-02-08T07:32:05.095Z,4.10
2019-02-08T07:33:05.084Z,4.40
2019-02-08T07:34:05.076Z,4.70
2019-02-08T07:35:05.064Z,3.90
2019-02-08T07:36:05.078Z,3.80
2019-02-08T07:37:05.046Z,3.80
2019-02-08T07:38:05.036Z,4.30
2019-02-08T07:39:05.025Z,3.90
2019-02-08T07:40:05.015Z,4.10
2019-02-08T07:41:05.023Z,3.70
2019-02-08T07:42:04.998Z,4.40
2019-02-08T07:43:04.974Z,4.00
2019-02-08T07:44:04.968Z,4.40
2019-02-08T07:45:04.954Z,4.70
2019-02-08T07:46:04.972Z,4.00
2019-02-08T07:47:04.941Z,4.20
2019-02-08T07:48:04.932Z,4.10
2019-02-08T07:49:04.916Z,4.00
2019-02-08T07:50:04.907Z,3.50
2019-02-08T07:51:04.920Z,3.80
2019-02-08T07:52:04.891Z,4.00
2019-02-08T07:53:04.880Z,4.00
2019-02-08T07:54:04.861Z,4.00
2019-02-08T07:55:04.851Z,4.00
2019-02-08T07:56:04.864Z,4.50
2019-02-08T07:57:04.836Z,4.00
2019-02-08T07:58:04.828Z,4.50
2019-02-08T07:59:04.816Z,3.90
2019-02-08T08:00:04.809Z,4.10
2019-02-08T08:01:04.812Z,3.90
2019-02-08T08:02:04.781Z,4.20
2019-02-08T08:03:04.779Z,4.30
2019-02-08T08:04:04.760Z,4.30
2019-02-08T08:05:04.753Z,3.70
2019-02-08T08:06:04.768Z,4.20
2019-02-08T08:07:04.727Z,3.30
2019-02-08T08:08:04.720Z,3.80
2019-02-08T08:09:04.705Z,3.60
2019-02-08T08:10:04.695Z,3.80
2019-02-08T08:11:04.712Z,3.20
2019-02-08T08:12:04.676Z,3.60
2019-02-08T08:13:04.675Z,3.40
2019-02-08T08:14:04.651Z,3.20
2019-02-08T08:15:04.648Z,3.10
2019-02-08T08:16:04.657Z,3.50
2019-02-08T08:17:04.616Z,3.50
2019-02-08T08:18:04.612Z,3.20
2019-02-08T08:19:04.602Z,3.30
2019-02-08T08:20:04.629Z,3.40
2019-02-08T08:21:04.633Z,3.50
2019-02-08T08:22:04.620Z,3.20
2019-02-08T08:23:04.556Z,3.30
2019-02-08T08:24:04.539Z,3.10
2019-02-08T08:25:04.535Z,3.50
2019-02-08T08:26:04.555Z,3.20
2019-02-08T08:27:04.513Z,3.30
2019-02-08T08:28:04.501Z,3.30
2019-02-08T08:29:04.492Z,3.30
2019-02-08T08:30:04.481Z,3.30
2019-02-08T08:31:04.498Z,3.00
2019-02-08T08:32:04.464Z,3.20
2019-02-08T08:33:04.473Z,3.00
2019-02-08T08:34:04.441Z,3.00
2019-02-08T08:35:04.429Z,3.70
2019-02-08T08:36:04.446Z,3.00
2019-02-08T08:37:04.409Z,3.10
2019-02-08T08:38:04.399Z,3.10
2019-02-08T08:39:04.385Z,3.30
2019-02-08T08:40:04.378Z,3.20
2019-02-08T08:41:04.395Z,3.60
2019-02-08T08:42:04.353Z,3.00
2019-02-08T08:43:04.341Z,3.30
2019-02-08T08:44:04.332Z,3.40
2019-02-08T08:45:04.322Z,3.40
2019-02-08T08:46:04.334Z,3.20
2019-02-08T08:47:04.296Z,3.10
2019-02-08T08:48:04.303Z,3.20
2019-02-08T08:49:04.294Z,3.00
2019-02-08T08:50:54.139Z,3.40
2019-02-08T08:51:54.143Z,3.20
2019-02-08T08:52:54.103Z,3.30
2019-02-08T08:53:54.088Z,3.40
2019-02-08T08:54:54.074Z,3.40
2019-02-08T08:55:54.081Z,3.30
2019-02-08T08:56:54.075Z,3.40
2019-02-08T08:57:54.044Z,3.40
2019-02-08T08:58:54.037Z,3.30
2019-02-08T08:59:54.020Z,2.70
2019-02-08T09:00:54.011Z,3.20
2019-02-08T09:01:54.032Z,3.30
2019-02-08T09:02:53.992Z,3.10
2019-02-08T09:03:53.982Z,3.60
2019-02-08T09:04:53.974Z,3.40
2019-02-08T09:05:53.969Z,3.00
2019-02-08T09:06:53.978Z,3.30
2019-02-08T09:07:53.946Z,3.40
2019-02-08T09:08:53.928Z,3.20
2019-02-08T09:09:53.925Z,3.20
2019-02-08T09:10:53.908Z,3.70
2019-02-08T09:11:53.928Z,3.30
2019-02-08T09:12:53.887Z,3.20
2019-02-08T09:13:53.909Z,3.10
2019-02-08T09:14:53.867Z,2.90
2019-02-08T09:15:53.860Z,3.10
2019-02-08T09:16:53.874Z,3.10
2019-02-08T09:17:53.836Z,3.30
2019-02-08T09:18:53.831Z,3.10
2019-02-08T09:19:53.816Z,3.40
2019-02-08T09:20:53.805Z,3.40
2019-02-08T09:21:53.819Z,3.10
2019-02-08T09:22:53.788Z,3.10
2019-02-08T09:23:53.778Z,3.20
2019-02-08T09:24:53.823Z,2.60
2019-02-08T09:25:53.755Z,3.20
2019-02-08T09:26:53.768Z,3.00
2019-02-08T09:27:53.730Z,2.60
2019-02-08T09:28:53.724Z,2.90
2019-02-08T09:29:53.710Z,2.80
2019-02-08T09:30:53.703Z,3.40
2019-02-08T09:31:53.725Z,2.90
2019-02-08T09:32:53.680Z,2.90
2019-02-08T09:33:53.667Z,2.70
2019-02-08T09:34:55.164Z,2.40
2019-02-08T09:35:53.647Z,2.80
2019-02-08T09:36:53.674Z,3.10
2019-02-08T09:37:53.628Z,2.90
2019-02-08T09:38:53.618Z,2.80
2019-02-08T09:39:53.618Z,2.70
2019-02-08T09:40:53.597Z,2.70
2019-02-08T09:41:53.611Z,3.10
2019-02-08T09:42:53.581Z,2.50
2019-02-08T09:43:53.563Z,2.20
2019-02-08T09:44:53.552Z,2.50
2019-02-08T09:45:53.550Z,2.70
2019-02-08T09:46:53.572Z,2.30
2019-02-08T09:47:53.524Z,2.30
2019-02-08T09:48:53.511Z,2.30
2019-02-08T09:49:53.531Z,2.40
2019-02-08T09:50:53.491Z,2.40
2019-02-08T09:51:53.510Z,2.40
2019-02-08T09:52:53.474Z,2.50
2019-02-08T09:53:53.464Z,2.10
2019-02-08T09:54:53.452Z,2.10
2019-02-08T09:55:57.891Z,2.40
2019-02-08T09:56:53.455Z,2.20
2019-02-08T09:57:53.416Z,2.20
2019-02-08T09:58:53.406Z,2.40
2019-02-08T09:59:53.405Z,2.40
2019-02-08T10:00:53.390Z,2.30
2019-02-08T10:01:53.437Z,2.50
2019-02-08T10:02:53.394Z,2.30
2019-02-08T10:03:53.354Z,2.60
2019-02-08T10:04:53.383Z,2.70
2019-02-08T10:05:53.337Z,2.50
2019-02-08T10:06:53.347Z,2.40
2019-02-08T10:07:53.320Z,2.70
2019-02-08T10:08:53.296Z,2.70
2019-02-08T10:09:53.284Z,2.70
2019-02-08T10:10:53.277Z,2.90
2019-02-08T10:11:53.335Z,2.50
2019-02-08T10:12:53.254Z,2.70
2019-02-08T10:13:53.240Z,2.60
2019-02-08T10:14:54.892Z,2.40
2019-02-08T10:15:53.227Z,2.50
2019-02-08T10:16:53.291Z,2.40
2019-02-08T10:17:53.206Z,2.30
2019-02-08T10:18:53.189Z,2.40
2019-02-08T10:19:53.182Z,2.40
2019-02-08T10:20:54.165Z,2.30
2019-02-08T10:21:53.194Z,2.20
2019-02-08T10:22:53.146Z,2.10
2019-02-08T10:23:53.132Z,1.80
2019-02-08T10:24:53.121Z,2.10
2019-02-08T10:25:53.111Z,2.10
2019-02-08T10:26:53.097Z,2.00
2019-02-08T10:27:53.120Z,2.00
2019-02-08T10:28:53.083Z,2.00
2019-02-08T10:29:53.065Z,2.20
2019-02-08T10:30:53.060Z,2.20
2019-02-08T10:31:53.045Z,2.10
2019-02-08T10:32:53.072Z,1.90
2019-02-08T10:33:53.023Z,2.00
2019-02-08T10:34:53.013Z,1.90
2019-02-08T10:35:52.998Z,2.10
2019-02-08T10:36:52.996Z,1.80
2019-02-08T10:37:53.006Z,1.90
2019-02-08T10:38:52.968Z,2.00
2019-02-08T10:39:52.958Z,2.00
2019-02-08T10:40:52.946Z,2.20
2019-02-08T10:41:52.938Z,1.90
2019-02-08T10:42:52.952Z,1.70
2019-02-08T10:43:52.916Z,1.90
2019-02-08T10:44:52.907Z,1.70
2019-02-08T10:45:52.895Z,2.00
2019-02-08T10:46:52.884Z,2.00
2019-02-08T10:47:52.898Z,1.70
2019-02-08T10:48:52.881Z,1.90
2019-02-08T10:49:52.851Z,2.00
2019-02-08T10:50:52.843Z,1.90
2019-02-08T10:51:52.836Z,1.90
2019-02-08T10:52:52.846Z,1.90
2019-02-08T10:53:53.344Z,1.70
2019-02-08T10:54:52.801Z,1.90
2019-02-08T10:55:52.790Z,1.90
2019-02-08T10:56:52.780Z,1.90
2019-02-08T10:57:52.790Z,1.90
2019-02-08T10:58:52.760Z,1.70
2019-02-08T10:59:52.755Z,1.70
2019-02-08T11:00:52.750Z,1.80
2019-02-08T11:01:52.727Z,1.80
2019-02-08T11:02:52.739Z,1.60
2019-02-08T11:03:52.710Z,2.00
2019-02-08T11:04:52.693Z,1.70
2019-02-08T11:05:52.683Z,1.50
2019-02-08T11:06:52.681Z,1.80
2019-02-08T11:07:52.685Z,1.60
2019-02-08T11:08:52.661Z,1.80
2019-02-08T11:09:52.640Z,2.10
2019-02-08T11:10:52.629Z,1.70
2019-02-08T11:11:52.617Z,1.90
2019-02-08T11:12:52.637Z,1.50
2019-02-08T11:13:52.597Z,1.60
2019-02-08T11:14:52.583Z,1.90
2019-02-08T11:15:52.576Z,1.90
2019-02-08T11:16:52.569Z,1.70
2019-02-08T11:17:52.583Z,1.80
2019-02-08T11:18:52.544Z,1.60
2019-02-08T11:19:52.527Z,1.70
2019-02-08T11:20:52.523Z,1.60
2019-02-08T11:21:52.513Z,1.60
2019-02-08T11:22:52.523Z,1.60
2019-02-08T11:23:52.489Z,1.80
2019-02-08T11:24:52.479Z,1.60
2019-02-08T11:25:52.473Z,2.00
2019-02-08T11:26:52.458Z,1.50
2019-02-08T11:27:52.471Z,1.30
2019-02-08T11:28:52.436Z,1.70
2019-02-08T11:29:52.423Z,1.50
2019-02-08T11:30:52.414Z,1.80
2019-02-08T11:31:52.402Z,1.60
2019-02-08T11:32:52.416Z,1.50
2019-02-08T11:33:52.381Z,1.60
2019-02-08T11:34:52.371Z,1.40
2019-02-08T11:35:52.367Z,1.40
2019-02-08T11:36:52.347Z,1.50
2019-02-08T11:37:52.370Z,1.60
2019-02-08T11:38:52.333Z,1.60
2019-02-08T11:39:52.322Z,1.50
2019-02-08T11:40:52.306Z,1.50
2019-02-08T11:41:52.297Z,1.50
2019-02-08T11:42:52.312Z,1.40
2019-02-08T11:43:52.284Z,1.70
2019-02-08T11:44:52.259Z,1.50
2019-02-08T11:45:52.421Z,1.50
2019-02-08T11:46:52.246Z,1.60
2019-02-08T11:47:52.260Z,1.50
2019-02-08T11:48:52.223Z,1.30
2019-02-08T11:49:52.217Z,1.40
2019-02-08T11:50:52.206Z,1.30
2019-02-08T11:51:52.187Z,1.40
2019-02-08T11:52:52.205Z,1.50
2019-02-08T11:53:52.173Z,1.30
2019-02-08T11:54:52.155Z,1.60
2019-02-08T11:55:52.149Z,1.50
2019-02-08T11:56:52.135Z,1.40
2019-02-08T11:57:52.150Z,1.60
2019-02-08T11:58:52.115Z,1.40
2019-02-08T11:59:52.149Z,1.40
2019-02-08T12:00:52.092Z,1.50
2019-02-08T12:01:52.079Z,1.20
2019-02-08T12:02:52.114Z,1.30
2019-02-08T12:03:52.060Z,1.20
2019-02-08T12:04:52.054Z,1.70
2019-02-08T12:05:52.044Z,1.40
2019-02-08T12:06:52.029Z,1.60
2019-02-08T12:07:52.025Z,1.50
2019-02-08T12:08:52.032Z,1.60
2019-02-08T12:09:51.997Z,1.40
2019-02-08T12:10:51.988Z,1.70
2019-02-08T12:11:51.980Z,1.50
2019-02-08T12:12:51.963Z,1.40
2019-02-08T12:13:51.984Z,1.60
2019-02-08T12:14:51.948Z,1.40
2019-02-08T12:15:51.934Z,1.50
2019-02-08T12:16:51.927Z,1.50
2019-02-08T12:17:51.917Z,1.90
2019-02-08T12:18:51.929Z,1.70
2019-02-08T12:19:51.891Z,1.50
2019-02-08T12:20:51.882Z,1.90
2019-02-08T12:21:51.884Z,1.80
2019-02-08T12:22:51.848Z,1.50
2019-02-08T12:23:51.872Z,1.80
2019-02-08T12:24:52.573Z,1.70
2019-02-08T12:25:51.823Z,1.60
2019-02-08T12:26:51.815Z,1.60
2019-02-08T12:27:51.805Z,1.70
2019-02-08T12:28:51.813Z,1.70
2019-02-08T12:29:51.783Z,1.70
2019-02-08T12:30:51.774Z,1.60
2019-02-08T12:31:51.768Z,2.10
2019-02-08T12:32:51.752Z,1.90
2019-02-08T12:33:51.780Z,1.80
2019-02-08T12:34:51.739Z,1.70
2019-02-08T12:35:51.725Z,1.80
2019-02-08T12:36:51.708Z,2.00
2019-02-08T12:37:51.700Z,1.80
2019-02-08T12:38:51.716Z,1.90
2019-02-08T12:39:51.670Z,1.70
2019-02-08T12:40:51.671Z,1.90
2019-02-08T12:41:51.663Z,1.70
2019-02-08T12:42:51.647Z,1.80
2019-02-08T12:43:51.660Z,1.80
2019-02-08T12:44:51.632Z,1.70
2019-02-08T12:45:51.654Z,1.80
2019-02-08T12:46:51.604Z,2.10
2019-02-08T12:47:51.595Z,1.60
2019-02-08T12:48:51.608Z,2.10
2019-02-08T12:49:51.578Z,1.80
2019-02-08T12:50:51.568Z,1.80
2019-02-08T12:51:51.555Z,1.70
2019-02-08T12:52:51.529Z,1.70
2019-02-08T12:53:51.562Z,2.00
2019-02-08T12:54:51.521Z,1.70
2019-02-08T12:55:51.508Z,1.60
2019-02-08T12:56:51.504Z,1.90
2019-02-08T12:57:51.490Z,1.50
2019-02-08T12:58:51.497Z,1.60
2019-02-08T12:59:51.464Z,1.80
2019-02-08T13:00:51.469Z,1.40
2019-02-08T13:01:51.444Z,1.90
2019-02-08T13:02:51.439Z,2.00
2019-02-08T13:03:51.450Z,1.50
2019-02-08T13:04:51.416Z,1.80
2019-02-08T13:05:51.406Z,1.70
2019-02-08T13:06:51.391Z,1.30
2019-02-08T13:07:51.398Z,1.40
2019-02-08T13:08:51.400Z,1.50
2019-02-08T13:09:51.367Z,1.60
2019-02-08T13:10:51.355Z,1.70
2019-02-08T13:11:51.340Z,1.40
2019-02-08T13:12:51.327Z,1.60
2019-02-08T13:13:51.345Z,1.70
2019-02-08T13:14:51.308Z,1.50
2019-02-08T13:15:51.298Z,1.50
2019-02-08T13:16:51.289Z,1.50
2019-02-08T13:17:51.275Z,1.40